Time;durP1;ratioP1;P1;durP2;ratioP2;P2;SDS_P1;SDS_P2;PMS_P1;PMS_P2;Temp;Humidity;BMP_temperature;BMP_pressure;BME280_temperature;BME280_humidity;BME280_pressure;Samples;Min_cycle;Max_cycle;Signal;HPM_P1;HPM_P2
2022/02/08 00:00:36;;;;;;;11.38;4.20;;;;;;;7.48;47.12;100334.75;5093197;28;20032;-47
2022/02/08 00:03:02;;;;;;;12.95;5.38;;;;;;;7.30;47.07;100338.03;5093165;28;20013;-48
2022/02/08 00:05:28;;;;;;;15.10;4.97;;;;;;;7.06;47.93;100335.84;5091739;28;20482;-48
2022/02/08 00:07:55;;;;;;;78.40;58.20;;;;;;;6.83;47.96;100340.50;5091692;28;20031;-48
2022/02/08 00:10:21;;;;;;;328.88;213.52;;;;;;;6.68;48.46;100349.66;5092925;28;20475;-48
2022/02/08 00:12:47;;;;;;;86.15;58.17;;;;;;;6.72;49.35;100338.00;5091649;28;20049;-48
2022/02/08 00:15:13;;;;;;;17.90;8.52;;;;;;;6.63;48.81;100344.84;5091547;28;20021;-47
2022/02/08 00:17:39;;;;;;;14.50;6.60;;;;;;;6.51;49.29;100341.53;5092857;28;20016;-48
2022/02/08 00:20:07;;;;;;;15.48;8.40;;;;;;;6.42;49.00;100344.09;5091515;28;20042;-48
2022/02/08 00:22:37;;;;;;;12.40;5.03;;;;;;;6.53;49.65;100338.78;5091440;28;20024;-48
2022/02/08 00:25:04;;;;;;;19.50;5.25;;;;;;;6.73;49.35;100343.09;5090816;28;20118;-48
2022/02/08 00:27:30;;;;;;;12.63;5.32;;;;;;;6.97;49.41;100341.91;5091340;28;20020;-47
2022/02/08 00:29:56;;;;;;;9.93;4.53;;;;;;;7.20;48.71;100339.84;5091250;28;20512;-48
2022/02/08 00:32:22;;;;;;;16.02;5.15;;;;;;;7.28;49.11;100334.75;5092599;28;20030;-48
2022/02/08 00:34:48;;;;;;;16.05;4.65;;;;;;;7.47;48.45;100343.56;5092265;28;20036;-48
2022/02/08 00:37:15;;;;;;;14.63;5.63;;;;;;;7.53;48.22;100340.38;5091201;28;20027;-47
2022/02/08 00:39:41;;;;;;;11.57;4.65;;;;;;;7.63;47.85;100340.38;5092480;28;20077;-47
2022/02/08 00:42:09;;;;;;;14.77;4.97;;;;;;;7.68;47.79;100336.34;5091090;28;20493;-48
2022/02/08 00:44:41;;;;;;;11.38;4.32;;;;;;;7.58;47.30;100328.53;5092379;28;20564;-48
2022/02/08 00:47:18;;;;;;;11.23;4.63;;;;;;;7.53;47.64;100324.72;5092459;28;20028;-48
2022/02/08 00:49:45;;;;;;;16.23;4.72;;;;;;;7.52;47.96;100330.88;5092273;28;20112;-48
2022/02/08 00:52:17;;;;;;;14.85;4.40;;;;;;;7.47;47.25;100335.72;5090962;28;20062;-49
2022/02/08 00:54:47;;;;;;;14.20;3.90;;;;;;;7.38;47.40;100326.91;5092239;28;20489;-48
2022/02/08 00:57:13;;;;;;;10.38;4.75;;;;;;;7.25;47.22;100327.19;5090889;28;20118;-49
2022/02/08 00:59:39;;;;;;;11.65;3.85;;;;;;;7.12;47.90;100324.03;5090868;28;20512;-48
2022/02/08 01:02:07;;;;;;;15.90;4.28;;;;;;;7.19;48.11;100323.34;5090830;28;20066;-49
2022/02/08 01:04:34;;;;;;;13.45;4.25;;;;;;;7.37;48.21;100323.47;5090787;28;20031;-48
2022/02/08 01:07:05;;;;;;;13.65;4.55;;;;;;;7.51;48.02;100330.06;5090749;28;20489;-48
2022/02/08 01:11:59;;;;;;;18.33;5.35;;;;;;;7.36;47.54;100328.84;5092005;28;20028;-48
2022/02/08 01:14:24;;;;;;;10.70;4.45;;;;;;;7.12;47.97;100326.66;5090648;28;20027;-48
2022/02/08 01:16:52;;;;;;;13.60;7.25;;;;;;;7.02;48.17;100338.88;5090643;28;20028;-48
2022/02/08 01:19:20;;;;;;;11.05;4.82;;;;;;;6.94;48.86;100337.78;5090598;28;20028;-48
2022/02/08 01:21:45;;;;;;;13.57;4.70;;;;;;;6.92;48.40;100342.31;5090612;28;20405;-48
2022/02/08 01:24:12;;;;;;;9.43;4.82;;;;;;;6.84;48.25;100351.75;5090542;28;20028;-47
2022/02/08 01:26:47;;;;;;;14.93;5.82;;;;;;;6.60;49.46;100345.94;5090483;28;20444;-48
2022/02/08 01:32:34;;;;;;;13.07;5.03;;;;;;;6.69;49.38;100356.53;5083096;28;20036;-48
2022/02/08 01:37:45;;;;;;;10.68;4.63;;;;;;;6.35;49.18;100375.09;5094299;28;20568;-48
2022/02/08 01:48:05;;;;;;;17.05;6.45;;;;;;;4.73;53.19;100390.06;5096032;28;20561;-49
2022/02/08 01:50:33;;;;;;;17.67;5.72;;;;;;;4.30;54.37;100388.16;5095694;28;20662;-49
2022/02/08 01:52:59;;;;;;;16.23;7.20;;;;;;;4.07;55.49;100384.75;5095707;28;20028;-49
2022/02/08 01:55:25;;;;;;;15.20;6.18;;;;;;;3.90;56.13;100383.41;5095582;28;20108;-50
2022/02/08 01:57:50;;;;;;;13.85;5.72;;;;;;;3.71;56.87;100383.97;5094277;28;20489;-49
2022/02/08 02:00:18;;;;;;;15.45;6.30;;;;;;;3.66;56.84;100384.28;5095526;28;20016;-48
2022/02/08 02:02:44;;;;;;;14.05;7.03;;;;;;;3.40;57.11;100381.84;5095536;28;20035;-50
2022/02/08 02:05:10;;;;;;;11.75;6.75;;;;;;;3.33;57.62;100380.63;5094140;28;20016;-48
2022/02/08 02:07:46;;;;;;;14.88;6.18;;;;;;;3.43;57.57;100385.16;5095466;28;20397;-49
2022/02/08 02:10:12;;;;;;;12.82;5.72;;;;;;;3.38;57.26;100383.72;5095382;28;20375;-48
2022/02/08 02:13:01;;;;;;;12.35;5.38;;;;;;;3.39;57.40;100387.97;5095350;28;20035;-49
2022/02/08 02:15:28;;;;;;;17.98;6.18;;;;;;;3.40;57.81;100383.59;5095312;28;20112;-48
2022/02/08 02:17:54;;;;;;;14.27;7.15;;;;;;;3.37;58.04;100382.06;5095165;28;20031;-48
2022/02/08 02:20:21;;;;;;;13.93;5.55;;;;;;;3.27;57.78;100370.69;5095146;28;20110;-48
2022/02/08 02:22:47;;;;;;;13.95;5.60;;;;;;;3.31;58.16;100372.13;5095113;28;20082;-48
2022/02/08 02:25:39;;;;;;;16.67;7.18;;;;;;;3.29;58.35;100371.41;5095026;28;20062;-47
2022/02/08 02:28:06;;;;;;;10.27;5.07;;;;;;;3.21;58.54;100365.97;5090815;28;20066;-48
2022/02/08 02:30:34;;;;;;;11.35;5.20;;;;;;;2.98;58.95;100373.63;5094861;28;20020;-48
2022/02/08 02:33:01;;;;;;;13.57;6.72;;;;;;;2.85;60.06;100365.06;5094881;28;20061;-49
2022/02/08 02:35:28;;;;;;;12.57;5.07;;;;;;;2.82;60.25;100370.50;5093267;28;20121;-47
2022/02/08 02:37:57;;;;;;;11.77;5.20;;;;;;;2.93;60.28;100375.72;5095085;28;20389;-47
2022/02/08 02:40:23;;;;;;;14.20;6.53;;;;;;;3.03;59.88;100369.88;5095010;28;20035;-48
2022/02/08 02:42:54;;;;;;;14.80;6.90;;;;;;;3.09;59.13;100369.44;5094760;28;20021;-49
2022/02/08 02:45:21;;;;;;;12.32;4.57;;;;;;;3.20;59.13;100372.09;5094694;28;20035;-48
2022/02/08 02:47:52;;;;;;;11.27;4.57;;;;;;;3.06;59.19;100385.22;5092721;28;20512;-48
2022/02/08 02:50:22;;;;;;;11.52;4.18;;;;;;;2.96;59.93;100392.84;5093190;28;20397;-48
2022/02/08 02:52:49;;;;;;;10.45;4.82;;;;;;;2.87;59.94;100394.31;5094547;28;20638;-49
2022/02/08 02:55:16;;;;;;;10.70;4.95;;;;;;;2.89;60.01;100397.63;5094460;28;20028;-48
2022/02/08 02:57:48;;;;;;;16.00;7.25;;;;;;;2.97;60.35;100395.31;5094455;28;20024;-47
2022/02/08 03:00:28;;;;;;;15.13;5.63;;;;;;;2.90;60.47;100393.28;5094422;28;20032;-47
2022/02/08 03:03:01;;;;;;;11.52;5.57;;;;;;;2.95;60.40;100386.00;5094389;28;20031;-48
2022/02/08 03:17:24;;;;;;;15.52;7.50;;;;;;;2.99;60.23;100387.44;5094336;28;20028;-48
2022/02/08 03:19:02;;;;;;;11.60;5.22;;;;;;;3.47;59.24;100379.63;5094068;28;20039;-48
2022/02/08 03:21:28;;;;;;;12.80;4.88;;;;;;;3.36;58.46;100376.97;5093946;28;20393;-47
2022/02/08 03:23:54;;;;;;;17.92;6.05;;;;;;;3.40;59.21;100374.06;5094011;28;20103;-48
2022/02/08 03:26:19;;;;;;;13.57;7.82;;;;;;;3.40;58.51;100373.22;5093871;28;20495;-48
2022/02/08 03:28:45;;;;;;;10.90;5.75;;;;;;;3.40;58.47;100373.22;5093768;28;20020;-47
2022/02/08 03:31:11;;;;;;;16.40;8.68;;;;;;;3.21;59.18;100368.56;5093754;28;20026;-48
2022/02/08 03:33:37;;;;;;;29.27;9.23;;;;;;;3.15;58.91;100372.41;5093461;28;20044;-48
2022/02/08 03:36:03;;;;;;;15.38;6.50;;;;;;;3.11;58.93;100370.16;5093627;28;20493;-47
2022/02/08 03:38:36;;;;;;;12.02;5.55;;;;;;;3.06;59.33;100362.72;5093961;28;20059;-48
2022/02/08 03:41:06;;;;;;;12.68;5.72;;;;;;;3.13;59.48;100366.50;5093696;28;20516;-48
2022/02/08 03:43:33;;;;;;;13.23;5.93;;;;;;;3.12;58.92;100361.44;5092216;28;20417;-48
2022/02/08 03:46:04;;;;;;;15.23;6.50;;;;;;;2.89;59.52;100374.28;5092180;28;20166;-48
2022/02/08 03:48:32;;;;;;;14.35;5.85;;;;;;;2.91;59.67;100371.59;5093506;28;20035;-47
2022/02/08 03:51:16;;;;;;;18.17;6.97;;;;;;;2.82;59.88;100377.41;5093282;28;20016;-47
2022/02/08 03:53:44;;;;;;;17.52;6.55;;;;;;;2.69;59.81;100375.69;5093377;28;20028;-49
2022/02/08 03:56:16;;;;;;;19.20;6.43;;;;;;;2.57;60.96;100382.56;5093282;28;20073;-47
2022/02/08 03:58:42;;;;;;;11.77;5.40;;;;;;;2.65;60.87;100378.63;5092760;28;20036;-47
2022/02/08 04:03:38;;;;;;;9.52;4.70;;;;;;;2.56;60.68;100380.09;5093146;28;20056;-48
2022/02/08 04:06:04;;;;;;;11.23;5.18;;;;;;;2.43;60.97;100374.09;5091754;28;20032;-48
2022/02/08 04:08:31;;;;;;;10.77;5.70;;;;;;;2.54;61.13;100376.78;5093138;28;20020;-48
2022/02/08 04:10:59;;;;;;;18.38;8.57;;;;;;;2.64;61.41;100375.19;5092942;28;20039;-48
2022/02/08 04:13:31;;;;;;;17.80;7.53;;;;;;;2.61;60.79;100380.59;5092955;28;20039;-50
2022/02/08 04:32:26;;;;;;;20.05;9.50;;;;;;;2.49;61.42;100379.66;5092927;28;20030;-47
2022/02/08 04:44:45;;;;;;;19.40;8.68;;;;;;;2.49;61.56;100397.00;5092462;28;20440;-47
2022/02/08 04:47:17;;;;;;;23.98;8.30;;;;;;;2.48;61.22;100392.75;5091124;28;20253;-47
2022/02/08 04:49:43;;;;;;;17.42;6.80;;;;;;;2.37;61.31;100396.91;5092322;28;20020;-47
2022/02/08 04:52:11;;;;;;;20.00;7.57;;;;;;;2.35;61.85;100388.38;5092298;28;20111;-48
2022/02/08 04:54:49;;;;;;;28.48;17.45;;;;;;;2.32;62.53;100400.75;5092324;28;20016;-47
2022/02/08 04:57:23;;;;;;;17.98;7.25;;;;;;;2.28;62.37;100405.31;5092260;28;20470;-47
2022/02/08 05:30:00;;;;;;;13.85;4.72;;;;;;;2.28;62.50;100425.22;5091697;28;20058;-48
2022/02/08 05:47:43;;;;;;;12.23;5.93;;;;;;;2.30;61.02;100444.06;5091754;28;20409;-48
2022/02/08 05:55:30;;;;;;;15.38;7.00;;;;;;;2.25;61.86;100444.34;5091624;28;20062;-47
2022/02/08 05:57:57;;;;;;;16.95;6.57;;;;;;;2.34;62.60;100448.09;5090238;28;20028;-48
2022/02/08 06:00:27;;;;;;;11.20;5.43;;;;;;;2.48;62.37;100447.19;5091473;28;20497;-48
2022/02/08 06:02:55;;;;;;;15.07;5.45;;;;;;;2.55;61.64;100445.81;5091473;28;20024;-48
2022/02/08 06:05:22;;;;;;;17.25;6.53;;;;;;;2.48;61.79;100445.41;5091480;28;20039;-48
2022/02/08 06:07:48;;;;;;;21.23;7.10;;;;;;;2.35;62.14;100447.97;5091533;28;20028;-48
2022/02/08 06:10:14;;;;;;;30.60;20.00;;;;;;;2.27;62.56;100441.66;5091384;28;20058;-48
2022/02/08 06:12:52;;;;;;;595.67;467.50;;;;;;;2.19;62.63;100457.72;5090078;28;20031;-48
2022/02/08 06:15:21;;;;;;;30.27;18.95;;;;;;;2.07;62.12;100448.19;5091442;28;20394;-48
2022/02/08 06:17:47;;;;;;;23.30;14.77;;;;;;;2.15;62.36;100448.50;5091412;28;20065;-48
2022/02/08 06:20:14;;;;;;;18.95;10.32;;;;;;;2.18;62.75;100448.31;5091295;28;20047;-48
2022/02/08 06:22:41;;;;;;;11.18;6.80;;;;;;;2.28;61.82;100448.53;5092413;28;20027;-47
2022/02/08 06:25:14;;;;;;;17.80;5.75;;;;;;;2.26;61.45;100450.38;5095038;28;20024;-48
2022/02/08 06:27:41;;;;;;;18.95;7.45;;;;;;;2.24;61.45;100452.25;5095121;28;20028;-47
2022/02/08 06:30:08;;;;;;;17.90;6.72;;;;;;;2.33;62.11;100454.22;5094894;28;20031;-50
2022/02/08 06:32:35;;;;;;;17.35;6.18;;;;;;;2.38;61.67;100452.16;5094973;28;20020;-49
2022/02/08 06:35:07;;;;;;;20.90;7.07;;;;;;;2.27;61.67;100457.22;5094691;28;20473;-49
2022/02/08 06:37:36;;;;;;;13.60;7.40;;;;;;;2.06;61.56;100459.50;5094918;28;20055;-49
2022/02/08 06:40:03;;;;;;;17.55;7.45;;;;;;;1.96;62.32;100465.25;5094756;28;20035;-49
2022/02/08 06:42:28;;;;;;;20.83;8.27;;;;;;;1.89;61.99;100468.34;5094749;28;20511;-49
2022/02/08 06:44:54;;;;;;;15.65;6.30;;;;;;;1.83;62.50;100461.81;5093453;28;20110;-47
2022/02/08 06:47:20;;;;;;;19.05;7.03;;;;;;;1.67;62.21;100464.59;5093353;28;20020;-47
2022/02/08 06:49:46;;;;;;;24.17;7.50;;;;;;;1.42;62.80;100467.91;5094508;28;20030;-47
2022/02/08 06:52:11;;;;;;;23.88;8.82;;;;;;;1.29;63.36;100470.44;5093238;28;20397;-48
2022/02/08 06:54:37;;;;;;;21.23;8.57;;;;;;;1.19;64.01;100477.13;5094529;28;20426;-48
2022/02/08 06:57:03;;;;;;;21.27;7.72;;;;;;;1.10;64.43;100478.50;5094467;28;20107;-49
2022/02/08 06:59:36;;;;;;;16.60;7.55;;;;;;;1.25;65.02;100481.91;5094536;28;20067;-47
2022/02/08 07:02:01;;;;;;;14.15;6.55;;;;;;;1.31;63.99;100485.84;5094465;28;20028;-48
2022/02/08 07:04:27;;;;;;;16.05;6.63;;;;;;;1.36;64.69;100482.03;5094660;28;20105;-47
2022/02/08 07:06:53;;;;;;;14.65;6.88;;;;;;;1.82;64.34;100485.22;5094367;28;20016;-48
2022/02/08 07:09:18;;;;;;;14.68;6.78;;;;;;;2.38;62.99;100483.25;5094195;28;20024;-48
2022/02/08 07:11:47;;;;;;;13.52;6.65;;;;;;;2.87;61.28;100484.25;5094096;28;20016;-48
2022/02/08 07:14:13;;;;;;;16.38;6.97;;;;;;;3.41;59.72;100476.09;5093944;28;20473;-48
2022/02/08 07:16:39;;;;;;;16.52;7.40;;;;;;;3.92;59.55;100477.63;5094006;28;20020;-47
2022/02/08 07:19:04;;;;;;;16.42;6.55;;;;;;;4.39;57.78;100475.84;5094059;28;20051;-49
2022/02/08 07:21:31;;;;;;;21.13;11.52;;;;;;;4.69;56.37;100474.44;5093998;28;20027;-48
2022/02/08 07:23:57;;;;;;;17.13;8.23;;;;;;;4.71;55.92;100485.53;5093902;28;20131;-47
2022/02/08 07:26:23;;;;;;;21.40;7.47;;;;;;;4.62;55.84;100483.66;5093995;28;20020;-48
2022/02/08 07:28:50;;;;;;;22.50;7.47;;;;;;;4.37;55.43;100495.94;5093818;28;20414;-47
2022/02/08 07:33:50;;;;;;;15.45;8.43;;;;;;;4.36;57.31;100494.25;5093691;28;20048;-48
2022/02/08 07:36:35;;;;;;;17.38;8.35;;;;;;;5.49;55.58;100489.81;5093677;28;20073;-50
2022/02/08 07:39:01;;;;;;;20.98;7.63;;;;;;;6.48;53.65;100487.84;5093741;28;20043;-50
2022/02/08 07:41:36;;;;;;;20.95;8.15;;;;;;;7.31;52.08;100493.78;5093572;28;20036;-48
2022/02/08 07:44:04;;;;;;;19.35;8.23;;;;;;;7.36;48.49;100490.75;5093612;28;20053;-48
2022/02/08 07:46:30;;;;;;;22.45;9.25;;;;;;;6.45;48.83;100498.53;5093482;28;20032;-48
2022/02/08 07:48:56;;;;;;;26.60;8.02;;;;;;;5.72;50.86;100495.81;5093394;28;20020;-48
2022/02/08 07:51:23;;;;;;;11.13;6.65;;;;;;;5.74;52.74;100490.47;5092075;28;20066;-50
2022/02/08 07:53:49;;;;;;;21.15;8.23;;;;;;;6.82;51.53;100491.97;5093417;28;20612;-50
2022/02/08 07:56:16;;;;;;;17.85;7.40;;;;;;;7.89;49.56;100485.19;5093329;28;20103;-48
2022/02/08 07:58:42;;;;;;;15.73;7.38;;;;;;;8.86;47.88;100486.75;5093299;28;20070;-48
2022/02/08 08:01:08;;;;;;;22.27;7.68;;;;;;;9.47;46.72;100479.25;5091928;28;20035;-48
2022/02/08 08:03:40;;;;;;;26.90;7.93;;;;;;;10.17;46.62;100489.84;5093229;28;20016;-48
2022/02/08 08:06:07;;;;;;;34.10;9.25;;;;;;;11.09;45.39;100483.16;5093130;28;20118;-48
2022/02/08 08:08:33;;;;;;;38.08;7.93;;;;;;;11.65;43.34;100477.34;5093064;28;20059;-49
2022/02/08 08:11:00;;;;;;;22.70;6.97;;;;;;;11.75;41.54;100472.75;5092918;28;20035;-49
2022/02/08 08:13:27;;;;;;;20.10;7.60;;;;;;;12.06;41.38;100470.31;5093040;28;20428;-50
2022/02/08 08:16:00;;;;;;;20.88;8.18;;;;;;;12.53;40.62;100469.56;5092744;28;20032;-49
2022/02/08 08:18:43;;;;;;;27.58;7.70;;;;;;;12.59;39.10;100462.81;5091633;28;20379;-49
2022/02/08 08:21:09;;;;;;;29.20;8.77;;;;;;;12.31;39.27;100463.19;5092858;28;20524;-50
2022/02/08 08:23:35;;;;;;;23.08;7.70;;;;;;;11.70;39.06;100473.25;5092701;28;20028;-49
2022/02/08 08:26:00;;;;;;;17.90;7.20;;;;;;;11.30;39.83;100466.94;5092780;28;20443;-49
2022/02/08 08:28:26;;;;;;;21.20;7.55;;;;;;;11.60;40.01;100465.50;5092784;28;20012;-49
2022/02/08 08:30:52;;;;;;;24.75;7.75;;;;;;;11.78;39.06;100462.72;5092561;28;20378;-49
2022/02/08 08:33:18;;;;;;;24.48;7.60;;;;;;;11.62;38.71;100465.34;5091046;28;20047;-48
2022/02/08 08:35:45;;;;;;;25.63;8.27;;;;;;;11.66;38.43;100466.66;5091289;28;20085;-48
2022/02/08 08:38:16;;;;;;;24.23;10.15;;;;;;;11.88;38.82;100459.13;5091304;28;20032;-49
2022/02/08 08:40:51;;;;;;;27.40;8.00;;;;;;;12.64;37.81;100457.88;5092589;28;20489;-49
2022/02/08 08:48:41;;;;;;;17.25;8.00;;;;;;;15.43;33.81;100455.38;5092378;28;20035;-50
2022/02/08 08:53:39;;;;;;;23.95;7.80;;;;;;;17.16;31.23;100455.72;5092410;28;20039;-50
2022/02/08 08:56:05;;;;;;;15.38;6.57;;;;;;;17.51;30.55;100452.97;5092251;28;20020;-50
2022/02/08 08:58:31;;;;;;;17.50;7.38;;;;;;;17.96;30.38;100453.22;5092197;28;20028;-50
2022/02/08 09:00:59;;;;;;;25.08;8.07;;;;;;;18.42;29.64;100454.19;5090821;28;20020;-50
2022/02/08 09:03:25;;;;;;;27.52;7.63;;;;;;;18.81;28.78;100453.25;5090860;28;20020;-49
2022/02/08 09:05:52;;;;;;;12.98;6.38;;;;;;;19.06;28.43;100458.69;5092088;28;20032;-50
2022/02/08 09:08:18;;;;;;;30.17;7.93;;;;;;;19.41;28.23;100452.94;5092086;28;20031;-50
2022/02/08 09:10:54;;;;;;;32.53;7.47;;;;;;;20.07;27.41;100453.50;5091974;28;20019;-49
2022/02/08 09:28:56;;;;;;;23.00;6.78;;;;;;;22.76;23.21;100448.38;5092139;28;20039;-50
2022/02/08 09:31:22;;;;;;;21.55;6.47;;;;;;;22.94;22.31;100444.72;5091785;28;20028;-50
2022/02/08 09:33:49;;;;;;;27.90;6.00;;;;;;;22.80;22.48;100448.69;5091518;28;20117;-51
2022/02/08 09:36:16;;;;;;;26.45;5.13;;;;;;;22.98;22.00;100445.03;5090537;28;20505;-50
2022/02/08 09:38:42;;;;;;;17.73;5.05;;;;;;;22.90;22.26;100446.25;5090436;28;20020;-51
2022/02/08 09:41:11;;;;;;;17.35;5.10;;;;;;;22.83;21.55;100442.88;5090382;28;20089;-50
2022/02/08 09:43:38;;;;;;;19.75;5.13;;;;;;;22.90;21.67;100439.03;5091702;28;20025;-50
2022/02/08 09:46:06;;;;;;;27.13;5.97;;;;;;;22.85;21.38;100446.13;5091709;28;20048;-51
2022/02/08 09:48:45;;;;;;;20.70;5.85;;;;;;;23.15;21.65;100432.53;5091780;28;20445;-50
2022/02/08 09:51:12;;;;;;;17.05;5.70;;;;;;;23.26;21.62;100439.72;5091964;28;20038;-50
2022/02/08 09:53:41;;;;;;;13.40;5.68;;;;;;;23.21;21.52;100436.13;5091642;28;20096;-51
2022/02/08 09:56:07;;;;;;;16.85;6.05;;;;;;;23.08;21.47;100434.53;5090300;28;20468;-50
2022/02/08 09:58:33;;;;;;;19.58;6.38;;;;;;;23.41;21.53;100432.97;5094114;28;20567;-51
2022/02/08 10:01:11;;;;;;;14.40;5.57;;;;;;;23.84;21.37;100423.50;5095492;28;20024;-50
2022/02/08 10:03:51;;;;;;;14.60;5.78;;;;;;;24.04;21.19;100418.44;5095608;28;20029;-51
2022/02/08 10:06:17;;;;;;;20.08;6.10;;;;;;;24.06;20.94;100415.50;5095438;28;20028;-50
2022/02/08 10:08:42;;;;;;;37.67;7.95;;;;;;;23.70;20.75;100415.78;5094082;28;20031;-50
2022/02/08 10:11:24;;;;;;;16.15;5.00;;;;;;;23.21;21.15;100420.84;5095248;28;20016;-50
2022/02/08 10:14:04;;;;;;;17.85;5.53;;;;;;;23.21;21.35;100420.84;5094055;28;20028;-51
2022/02/08 10:22:17;;;;;;;25.00;5.40;;;;;;;24.18;20.65;100410.03;5089397;28;20048;-50
2022/02/08 10:24:53;;;;;;;15.93;5.70;;;;;;;23.94;20.82;100412.91;5095146;28;20020;-50
2022/02/08 10:27:31;;;;;;;18.38;5.95;;;;;;;24.06;20.35;100408.25;5095156;28;20039;-50
2022/02/08 10:38:07;;;;;;;14.18;4.28;;;;;;;24.12;20.23;100409.94;5094915;28;20039;-50
2022/02/08 10:40:38;;;;;;;18.10;4.85;;;;;;;24.55;19.11;100409.44;5094867;28;20032;-50
2022/02/08 10:43:07;;;;;;;27.63;5.03;;;;;;;24.37;18.94;100403.31;5094836;28;20473;-50
2022/02/08 10:45:35;;;;;;;18.20;5.53;;;;;;;24.37;19.38;100408.69;5094725;28;20111;-50
2022/02/08 10:48:04;;;;;;;17.40;4.53;;;;;;;24.43;19.47;100401.50;5093414;28;20077;-51
2022/02/08 10:50:36;;;;;;;13.15;4.30;;;;;;;24.46;19.24;100393.75;5094559;28;20028;-50
2022/02/08 10:53:05;;;;;;;21.88;4.97;;;;;;;24.06;18.89;100402.09;5094590;28;20074;-51
2022/02/08 10:55:40;;;;;;;12.23;4.03;;;;;;;23.77;19.01;100396.88;5094537;28;20016;-51
2022/02/08 10:58:24;;;;;;;21.77;5.20;;;;;;;22.65;19.63;100404.53;5094589;28;20027;-51
2022/02/08 11:03:48;;;;;;;12.25;4.13;;;;;;;22.03;20.74;100402.41;5094437;28;20028;-50
2022/02/08 11:06:21;;;;;;;11.25;4.00;;;;;;;21.55;20.94;100403.47;5094405;28;20375;-49
2022/02/08 11:11:58;;;;;;;11.10;3.78;;;;;;;20.54;22.67;100400.47;5094264;28;20465;-50
2022/02/08 11:20:06;;;;;;;7.13;2.85;;;;;;;21.20;22.03;100388.13;5094153;28;20043;-50
2022/02/08 11:22:50;;;;;;;11.73;3.35;;;;;;;22.07;21.61;100392.88;5094060;28;20035;-50
2022/02/08 11:25:32;;;;;;;10.93;3.03;;;;;;;22.74;20.75;100392.41;5094003;28;20035;-50
2022/02/08 11:28:15;;;;;;;11.73;2.97;;;;;;;22.89;20.10;100389.19;5094044;28;20023;-50
2022/02/08 11:30:56;;;;;;;18.08;3.40;;;;;;;23.05;19.70;100384.16;5092543;28;20032;-50
2022/02/08 11:33:56;;;;;;;8.32;3.20;;;;;;;23.02;19.68;100388.13;5093643;28;20024;-50
2022/02/08 11:53:19;;;;;;;9.43;3.05;;;;;;;24.09;19.95;100361.38;5071146;28;20513;-50
2022/02/08 11:59:11;;;;;;;7.88;3.35;;;;;;;24.22;20.00;100360.19;5070902;28;20028;-51
2022/02/08 12:02:15;;;;;;;7.25;3.30;;;;;;;24.41;19.82;100350.75;5070866;28;20150;-50
2022/02/08 12:04:44;;;;;;;10.35;3.05;;;;;;;24.00;19.61;100354.81;5070469;28;20127;-50
2022/02/08 12:07:16;;;;;;;11.90;3.72;;;;;;;23.70;20.49;100355.97;5070789;28;20031;-50
2022/02/08 12:09:53;;;;;;;12.80;3.53;;;;;;;23.67;20.31;100348.44;5070646;28;20086;-50
2022/02/08 12:53:30;;;;;;;13.70;3.45;;;;;;;22.98;20.57;100297.75;5069628;28;20059;-50
2022/02/08 12:55:33;;;;;;;12.02;3.03;;;;;;;23.06;20.62;100294.69;5069150;28;20048;-50
2022/02/08 13:04:01;;;;;;;11.70;3.53;;;;;;;22.73;20.55;100275.66;5029892;28;20024;-51
2022/02/08 14:09:23;;;;;;;17.25;3.47;;;;;;;17.88;25.26;100198.44;5098302;28;20028;-51
2022/02/08 14:24:33;;;;;;;10.60;4.97;;;;;;;15.57;27.57;100200.47;5098078;28;20063;-50
2022/02/08 14:29:50;;;;;;;17.08;6.35;;;;;;;14.78;28.94;100204.16;5098300;28;20031;-50
2022/02/08 14:49:18;;;;;;;15.43;3.92;;;;;;;13.47;30.94;100198.00;5095036;28;20081;-49
2022/02/08 15:10:22;;;;;;;21.30;4.28;;;;;;;13.89;30.95;100169.31;5093024;28;20032;-49
2022/02/08 15:12:57;;;;;;;8.52;2.47;;;;;;;13.83;30.84;100175.34;5094339;28;20047;-50
2022/02/08 15:15:34;;;;;;;9.25;2.58;;;;;;;13.61;30.77;100162.06;5094223;28;20059;-50
2022/02/08 15:18:00;;;;;;;12.73;3.28;;;;;;;13.60;30.94;100170.97;5094216;28;20115;-49
2022/02/08 15:20:27;;;;;;;40.22;6.75;;;;;;;13.72;31.30;100169.53;5094040;28;20028;-49
2022/02/08 15:22:57;;;;;;;54.05;14.07;;;;;;;13.85;30.89;100165.41;5094094;28;20024;-49
2022/02/08 15:25:23;;;;;;;26.58;6.15;;;;;;;13.82;31.05;100168.41;5092672;28;20097;-50
2022/02/08 15:27:49;;;;;;;44.03;14.27;;;;;;;13.56;30.82;100161.78;5093955;28;20112;-50
2022/02/08 15:30:15;;;;;;;14.40;7.60;;;;;;;13.56;31.40;100165.28;5093790;28;20545;-50
2022/02/08 15:32:41;;;;;;;13.45;3.40;;;;;;;13.54;31.24;100158.53;5093822;28;20111;-50
2022/02/08 15:35:08;;;;;;;17.33;3.45;;;;;;;13.53;31.26;100159.53;5093556;28;20115;-50
2022/02/08 15:37:34;;;;;;;20.20;3.17;;;;;;;13.47;31.40;100157.63;5092417;28;20077;-49
2022/02/08 15:40:03;;;;;;;52.92;6.22;;;;;;;13.61;31.80;100156.00;5093739;28;20074;-50
2022/02/08 15:42:33;;;;;;;19.38;3.55;;;;;;;13.79;31.79;100159.03;5093594;28;20085;-50
2022/02/08 15:45:20;;;;;;;18.08;3.33;;;;;;;13.99;31.41;100157.44;5093634;28;20028;-50
2022/02/08 15:47:46;;;;;;;17.00;4.50;;;;;;;14.09;31.33;100157.16;5093668;28;20031;-49
2022/02/08 15:50:22;;;;;;;17.15;4.25;;;;;;;13.97;31.12;100158.66;5093444;28;20104;-50
2022/02/08 16:01:09;;;;;;;26.63;12.05;;;;;;;14.19;31.59;100160.31;5093332;28;20413;-50
2022/02/08 16:08:32;;;;;;;9.90;3.13;;;;;;;14.38;31.65;100158.03;5093169;28;20111;-50
2022/02/08 16:11:21;;;;;;;10.17;2.80;;;;;;;14.29;31.18;100146.81;5093125;28;20024;-49
2022/02/08 16:16:22;;;;;;;28.73;13.60;;;;;;;14.34;31.00;100147.03;5092968;28;20028;-50
2022/02/08 16:19:03;;;;;;;20.42;10.48;;;;;;;14.25;31.13;100145.53;5091700;28;20479;-49
2022/02/08 16:27:03;;;;;;;13.40;4.85;;;;;;;13.87;31.67;100151.03;5092819;28;20020;-50
2022/02/08 16:32:37;;;;;;;11.93;4.00;;;;;;;13.12;32.40;100160.78;5092545;28;20032;-50
2022/02/08 16:46:16;;;;;;;15.27;5.40;;;;;;;11.15;36.49;100150.59;5092554;28;20042;-49
2022/02/08 16:59:29;;;;;;;37.75;23.92;;;;;;;10.65;37.41;100149.84;5092304;28;20024;-49
2022/02/08 17:02:01;;;;;;;28.77;20.40;;;;;;;10.40;37.60;100154.25;5092210;28;20448;-49
2022/02/08 17:04:27;;;;;;;17.20;9.93;;;;;;;10.34;38.37;100152.28;5092259;28;20028;-49
2022/02/08 17:06:53;;;;;;;13.50;4.72;;;;;;;10.27;38.19;100149.47;5091731;28;20036;-49
2022/02/08 17:12:17;;;;;;;17.42;5.47;;;;;;;10.10;38.42;100151.25;5092376;28;20093;-49
2022/02/08 17:47:31;;;;;;;11.60;5.10;;;;;;;8.39;44.02;100142.25;5091743;28;20039;-49
2022/02/08 17:49:58;;;;;;;13.57;5.88;;;;;;;8.49;43.93;100144.84;5091714;28;20020;-49
2022/02/08 17:52:24;;;;;;;13.27;6.05;;;;;;;8.44;44.12;100147.06;5091699;28;20070;-49
2022/02/08 17:54:50;;;;;;;16.65;5.78;;;;;;;8.38;44.34;100153.69;5091713;28;20497;-49
2022/02/08 17:57:16;;;;;;;12.98;5.03;;;;;;;8.31;45.08;100162.28;5091602;28;20032;-49
2022/02/08 17:59:42;;;;;;;13.27;5.68;;;;;;;8.24;45.89;100161.25;5090359;28;20024;-49
2022/02/08 18:02:10;;;;;;;34.55;19.77;;;;;;;8.16;45.87;100168.03;5090240;28;20027;-50
2022/02/08 18:04:36;;;;;;;23.85;8.48;;;;;;;8.01;46.29;100164.28;5091551;28;20016;-49
2022/02/08 18:07:03;;;;;;;11.50;5.95;;;;;;;7.91;46.63;100171.34;5091479;28;20463;-49
2022/02/08 18:09:29;;;;;;;15.23;6.57;;;;;;;7.86;46.03;100173.56;5091528;28;20371;-48
2022/02/08 18:11:59;;;;;;;15.18;7.03;;;;;;;7.86;46.72;100174.38;5091509;28;20028;-48
2022/02/08 18:14:25;;;;;;;14.05;6.15;;;;;;;7.85;46.41;100171.91;5091540;28;20025;-49
2022/02/08 18:17:03;;;;;;;15.90;6.28;;;;;;;7.85;46.80;100172.75;5091469;28;20106;-48
2022/02/08 18:19:34;;;;;;;14.98;5.78;;;;;;;7.87;47.07;100176.06;5093821;28;20031;-50
2022/02/08 18:27:38;;;;;;;28.83;9.55;;;;;;;7.92;47.60;100178.22;5095205;28;20025;-49
2022/02/08 19:11:24;;;;;;;18.50;8.07;;;;;;;7.90;48.17;100199.28;5094622;28;20541;-48
2022/02/08 19:16:11;;;;;;;18.48;8.52;;;;;;;7.93;47.98;100203.41;5094194;28;20042;-49
2022/02/08 19:18:45;;;;;;;18.52;7.57;;;;;;;7.80;47.60;100201.91;5093982;28;20032;-50
2022/02/08 19:23:48;;;;;;;17.40;8.15;;;;;;;7.72;47.86;100195.78;5094128;28;20066;-51